Saint-Jude, Canada
Current Conditions -  °F | °C
As of 6:00 PM on Thursday 27 Nov 2014 (Local Time) from CYHU Reporting Station
Overcast Overcast  
Wind Chill: 28°   Ceiling: 14000
Heat Index: 28°   Visibility: 9mi
Dew Point: 18°   Wind: 2mph
Humidity: 64%   Direction: 290°WNW
Pressure: 30.04"   Gusts: NA
Location:  45.77°N, 72.98°W
Report Text: CYHU 272300Z AUTO 29002KT 9SM OVC140 M02/M08 A3004 RMK SLP173
Loading
Personal Weather Stations






























Interactive Weather Map New forecast layout! Learn more

10-Day Weather Forecast

Advertisements
Track Severe Weather on mobile